sensor_id;sensor_type;location;lat;lon;timestamp;temperature;humidity
15355;DHT22;7777;52.254;9.618;2023-01-19T00:02:22;1.30;99.90
15355;DHT22;7777;52.254;9.618;2023-01-19T00:04:48;1.30;99.90
15355;DHT22;7777;52.254;9.618;2023-01-19T00:07:14;1.40;99.90
15355;DHT22;7777;52.254;9.618;2023-01-19T00:09:40;1.40;99.90
15355;DHT22;7777;52.254;9.618;2023-01-19T00:12:06;1.40;99.90
15355;DHT22;7777;52.254;9.618;2023-01-19T00:14:32;1.40;99.90
15355;DHT22;7777;52.254;9.618;2023-01-19T00:16:58;1.40;99.90
15355;DHT22;7777;52.254;9.618;2023-01-19T00:19:26;1.40;99.90
15355;DHT22;7777;52.254;9.618;2023-01-19T00:21:52;1.40;99.90
15355;DHT22;7777;52.254;9.618;2023-01-19T00:24:18;1.40;99.90
15355;DHT22;7777;52.254;9.618;2023-01-19T00:26:44;1.40;99.90
15355;DHT22;7777;52.254;9.618;2023-01-19T00:29:11;1.40;99.90
15355;DHT22;7777;52.254;9.618;2023-01-19T00:31:38;1.40;99.90
15355;DHT22;7777;52.254;9.618;2023-01-19T00:34:04;1.50;99.90
15355;DHT22;7777;52.254;9.618;2023-01-19T00:36:31;1.40;99.90
15355;DHT22;7777;52.254;9.618;2023-01-19T00:38:57;1.40;99.90
15355;DHT22;7777;52.254;9.618;2023-01-19T00:41:23;1.40;99.90
15355;DHT22;7777;52.254;9.618;2023-01-19T00:44:09;1.40;99.90
15355;DHT22;7777;52.254;9.618;2023-01-19T00:46:36;1.40;99.90
15355;DHT22;7777;52.254;9.618;2023-01-19T00:49:02;1.40;99.90
15355;DHT22;7777;52.254;9.618;2023-01-19T00:51:27;1.50;99.90
15355;DHT22;7777;52.254;9.618;2023-01-19T00:53:53;1.50;99.90
15355;DHT22;7777;52.254;9.618;2023-01-19T00:56:19;1.50;99.90
15355;DHT22;7777;52.254;9.618;2023-01-19T00:58:44;1.50;99.90
15355;DHT22;7777;52.254;9.618;2023-01-19T01:01:11;1.50;99.90
15355;DHT22;7777;52.254;9.618;2023-01-19T01:03:36;1.50;99.90
15355;DHT22;7777;52.254;9.618;2023-01-19T01:06:03;1.50;99.90
15355;DHT22;7777;52.254;9.618;2023-01-19T01:08:32;1.50;99.90
15355;DHT22;7777;52.254;9.618;2023-01-19T01:10:59;1.50;99.90
15355;DHT22;7777;52.254;9.618;2023-01-19T01:13:25;1.50;99.90
15355;DHT22;7777;52.254;9.618;2023-01-19T01:15:52;1.60;99.90
15355;DHT22;7777;52.254;9.618;2023-01-19T01:18:19;1.60;99.90
15355;DHT22;7777;52.254;9.618;2023-01-19T01:20:45;1.50;99.90
15355;DHT22;7777;52.254;9.618;2023-01-19T01:23:11;1.60;99.90
15355;DHT22;7777;52.254;9.618;2023-01-19T01:25:37;1.60;99.90
15355;DHT22;7777;52.254;9.618;2023-01-19T01:28:05;1.60;99.90
15355;DHT22;7777;52.254;9.618;2023-01-19T01:30:33;1.60;99.90
15355;DHT22;7777;52.254;9.618;2023-01-19T01:33:00;1.60;99.90
15355;DHT22;7777;52.254;9.618;2023-01-19T01:35:26;1.60;99.90
15355;DHT22;7777;52.254;9.618;2023-01-19T01:37:52;1.60;99.90
15355;DHT22;7777;52.254;9.618;2023-01-19T01:40:22;1.60;99.90
15355;DHT22;7777;52.254;9.618;2023-01-19T01:42:48;1.60;99.90
15355;DHT22;7777;52.254;9.618;2023-01-19T01:45:35;1.60;99.90
15355;DHT22;7777;52.254;9.618;2023-01-19T01:50:59;1.50;99.90
15355;DHT22;7777;52.254;9.618;2023-01-19T01:53:47;1.60;99.90
15355;DHT22;7777;52.254;9.618;2023-01-19T01:56:20;1.60;99.90
15355;DHT22;7777;52.254;9.618;2023-01-19T01:58:50;1.60;99.90
15355;DHT22;7777;52.254;9.618;2023-01-19T02:01:16;1.60;99.90
15355;DHT22;7777;52.254;9.618;2023-01-19T02:04:00;1.50;99.90
15355;DHT22;7777;52.254;9.618;2023-01-19T02:06:26;1.50;99.90
15355;DHT22;7777;52.254;9.618;2023-01-19T02:08:57;1.50;99.90
15355;DHT22;7777;52.254;9.618;2023-01-19T02:11:44;1.60;99.90
15355;DHT22;7777;52.254;9.618;2023-01-19T02:14:29;1.50;99.90
15355;DHT22;7777;52.254;9.618;2023-01-19T02:16:54;1.50;99.90
15355;DHT22;7777;52.254;9.618;2023-01-19T02:19:30;1.60;99.90
15355;DHT22;7777;52.254;9.618;2023-01-19T02:22:09;1.60;99.90
15355;DHT22;7777;52.254;9.618;2023-01-19T02:24:38;1.60;99.90
15355;DHT22;7777;52.254;9.618;2023-01-19T02:27:05;1.60;99.90
15355;DHT22;7777;52.254;9.618;2023-01-19T02:29:32;1.60;99.90
15355;DHT22;7777;52.254;9.618;2023-01-19T02:31:58;1.60;99.90
15355;DHT22;7777;52.254;9.618;2023-01-19T02:34:25;1.60;99.90
15355;DHT22;7777;52.254;9.618;2023-01-19T02:37:08;1.60;99.90
15355;DHT22;7777;52.254;9.618;2023-01-19T02:39:44;1.60;99.90
15355;DHT22;7777;52.254;9.618;2023-01-19T02:42:20;1.60;99.90
15355;DHT22;7777;52.254;9.618;2023-01-19T02:45:03;1.60;99.90
15355;DHT22;7777;52.254;9.618;2023-01-19T02:47:39;1.60;99.90
15355;DHT22;7777;52.254;9.618;2023-01-19T02:59:49;1.70;99.90
15355;DHT22;7777;52.254;9.618;2023-01-19T03:05:30;1.70;99.90
15355;DHT22;7777;52.254;9.618;2023-01-19T03:11:02;1.70;99.90
15355;DHT22;7777;52.254;9.618;2023-01-19T03:18:54;1.70;99.90
15355;DHT22;7777;52.254;9.618;2023-01-19T03:21:24;1.80;99.90
15355;DHT22;7777;52.254;9.618;2023-01-19T03:23:52;1.80;99.90
15355;DHT22;7777;52.254;9.618;2023-01-19T03:26:26;1.80;99.90
15355;DHT22;7777;52.254;9.618;2023-01-19T03:28:55;1.80;99.90
15355;DHT22;7777;52.254;9.618;2023-01-19T03:31:26;1.80;99.90
15355;DHT22;7777;52.254;9.618;2023-01-19T03:33:56;1.80;99.90
15355;DHT22;7777;52.254;9.618;2023-01-19T03:36:39;1.80;99.90
15355;DHT22;7777;52.254;9.618;2023-01-19T03:39:09;1.80;99.90
15355;DHT22;7777;52.254;9.618;2023-01-19T03:41:36;1.80;99.90
15355;DHT22;7777;52.254;9.618;2023-01-19T03:44:03;1.80;99.90
15355;DHT22;7777;52.254;9.618;2023-01-19T03:46:31;1.80;99.90
15355;DHT22;7777;52.254;9.618;2023-01-19T03:48:57;1.80;99.90
15355;DHT22;7777;52.254;9.618;2023-01-19T03:51:23;1.80;99.90
15355;DHT22;7777;52.254;9.618;2023-01-19T03:53:49;1.80;99.90
15355;DHT22;7777;52.254;9.618;2023-01-19T03:56:21;1.90;99.90
15355;DHT22;7777;52.254;9.618;2023-01-19T03:58:48;1.90;99.90
15355;DHT22;7777;52.254;9.618;2023-01-19T04:01:14;1.90;99.90
15355;DHT22;7777;52.254;9.618;2023-01-19T04:03:41;2.00;99.90
15355;DHT22;7777;52.254;9.618;2023-01-19T04:06:08;2.00;99.90
15355;DHT22;7777;52.254;9.618;2023-01-19T04:08:34;2.00;99.90
15355;DHT22;7777;52.254;9.618;2023-01-19T04:11:01;2.00;99.90
15355;DHT22;7777;52.254;9.618;2023-01-19T04:13:27;2.00;99.90
15355;DHT22;7777;52.254;9.618;2023-01-19T04:15:57;2.00;99.90
15355;DHT22;7777;52.254;9.618;2023-01-19T04:18:28;2.00;99.90
15355;DHT22;7777;52.254;9.618;2023-01-19T04:20:54;2.00;99.90
15355;DHT22;7777;52.254;9.618;2023-01-19T04:23:20;2.10;99.90
15355;DHT22;7777;52.254;9.618;2023-01-19T04:25:46;2.10;99.90
15355;DHT22;7777;52.254;9.618;2023-01-19T04:28:12;2.10;99.90
15355;DHT22;7777;52.254;9.618;2023-01-19T04:30:37;2.10;99.90
15355;DHT22;7777;52.254;9.618;2023-01-19T04:33:03;2.10;99.90
15355;DHT22;7777;52.254;9.618;2023-01-19T04:35:29;2.10;99.90
15355;DHT22;7777;52.254;9.618;2023-01-19T04:37:54;2.10;99.90
15355;DHT22;7777;52.254;9.618;2023-01-19T04:40:20;2.20;99.90
15355;DHT22;7777;52.254;9.618;2023-01-19T04:42:46;2.20;99.90
15355;DHT22;7777;52.254;9.618;2023-01-19T04:45:12;2.20;99.90
15355;DHT22;7777;52.254;9.618;2023-01-19T04:47:39;2.20;99.90
15355;DHT22;7777;52.254;9.618;2023-01-19T04:50:07;2.20;99.90
15355;DHT22;7777;52.254;9.618;2023-01-19T04:52:34;2.20;99.90
15355;DHT22;7777;52.254;9.618;2023-01-19T04:55:05;2.20;99.90
15355;DHT22;7777;52.254;9.618;2023-01-19T04:57:31;2.20;99.90
15355;DHT22;7777;52.254;9.618;2023-01-19T04:59:57;2.20;99.90
15355;DHT22;7777;52.254;9.618;2023-01-19T05:02:23;2.20;99.90
15355;DHT22;7777;52.254;9.618;2023-01-19T05:04:50;2.20;99.90
15355;DHT22;7777;52.254;9.618;2023-01-19T05:07:16;2.20;99.90
15355;DHT22;7777;52.254;9.618;2023-01-19T05:09:42;2.20;99.90
15355;DHT22;7777;52.254;9.618;2023-01-19T05:12:08;2.30;99.90
15355;DHT22;7777;52.254;9.618;2023-01-19T05:14:33;2.30;99.90
15355;DHT22;7777;52.254;9.618;2023-01-19T05:16:59;2.30;99.90
15355;DHT22;7777;52.254;9.618;2023-01-19T05:19:27;2.30;99.90
15355;DHT22;7777;52.254;9.618;2023-01-19T05:21:53;2.30;99.90
15355;DHT22;7777;52.254;9.618;2023-01-19T05:24:19;2.30;99.90
15355;DHT22;7777;52.254;9.618;2023-01-19T05:26:44;2.30;99.90
15355;DHT22;7777;52.254;9.618;2023-01-19T05:29:10;2.30;99.90
15355;DHT22;7777;52.254;9.618;2023-01-19T05:31:36;2.30;99.90
15355;DHT22;7777;52.254;9.618;2023-01-19T05:34:02;2.30;99.90
15355;DHT22;7777;52.254;9.618;2023-01-19T05:36:28;2.40;99.90
15355;DHT22;7777;52.254;9.618;2023-01-19T05:38:54;2.40;99.90
15355;DHT22;7777;52.254;9.618;2023-01-19T05:41:20;2.40;99.90
15355;DHT22;7777;52.254;9.618;2023-01-19T05:43:46;2.40;99.90
15355;DHT22;7777;52.254;9.618;2023-01-19T05:46:12;2.40;99.90
15355;DHT22;7777;52.254;9.618;2023-01-19T05:48:37;2.40;99.90
15355;DHT22;7777;52.254;9.618;2023-01-19T05:51:04;2.50;99.90
15355;DHT22;7777;52.254;9.618;2023-01-19T05:53:30;2.40;99.90
15355;DHT22;7777;52.254;9.618;2023-01-19T05:56:01;2.40;99.90
15355;DHT22;7777;52.254;9.618;2023-01-19T05:58:28;2.40;99.90
15355;DHT22;7777;52.254;9.618;2023-01-19T06:00:54;2.50;99.90
15355;DHT22;7777;52.254;9.618;2023-01-19T06:03:20;2.40;99.90
15355;DHT22;7777;52.254;9.618;2023-01-19T06:05:45;2.50;99.90
15355;DHT22;7777;52.254;9.618;2023-01-19T06:08:11;2.50;99.90
15355;DHT22;7777;52.254;9.618;2023-01-19T06:10:37;2.50;99.90
15355;DHT22;7777;52.254;9.618;2023-01-19T06:13:02;2.50;99.90
15355;DHT22;7777;52.254;9.618;2023-01-19T06:15:28;2.50;99.90
15355;DHT22;7777;52.254;9.618;2023-01-19T06:17:54;2.50;99.90
15355;DHT22;7777;52.254;9.618;2023-01-19T06:20:19;2.50;99.90
15355;DHT22;7777;52.254;9.618;2023-01-19T06:22:45;2.50;99.90
15355;DHT22;7777;52.254;9.618;2023-01-19T06:25:11;2.50;99.90
15355;DHT22;7777;52.254;9.618;2023-01-19T06:27:37;2.50;99.90
15355;DHT22;7777;52.254;9.618;2023-01-19T06:30:04;2.50;99.90
15355;DHT22;7777;52.254;9.618;2023-01-19T06:32:31;2.50;99.90
15355;DHT22;7777;52.254;9.618;2023-01-19T06:34:56;2.50;99.90
15355;DHT22;7777;52.254;9.618;2023-01-19T06:37:22;2.50;99.90
15355;DHT22;7777;52.254;9.618;2023-01-19T06:39:52;2.50;99.90
15355;DHT22;7777;52.254;9.618;2023-01-19T06:42:17;2.60;99.90
15355;DHT22;7777;52.254;9.618;2023-01-19T06:44:43;2.60;99.90
15355;DHT22;7777;52.254;9.618;2023-01-19T06:47:12;2.60;99.90
15355;DHT22;7777;52.254;9.618;2023-01-19T06:49:39;2.60;99.90
15355;DHT22;7777;52.254;9.618;2023-01-19T06:52:04;2.60;99.90
15355;DHT22;7777;52.254;9.618;2023-01-19T06:54:30;2.60;99.90
15355;DHT22;7777;52.254;9.618;2023-01-19T06:56:56;2.60;99.90
15355;DHT22;7777;52.254;9.618;2023-01-19T06:59:21;2.60;99.90
15355;DHT22;7777;52.254;9.618;2023-01-19T07:01:47;2.60;99.90
15355;DHT22;7777;52.254;9.618;2023-01-19T07:04:13;2.60;99.90
15355;DHT22;7777;52.254;9.618;2023-01-19T07:06:39;2.60;99.90
15355;DHT22;7777;52.254;9.618;2023-01-19T07:09:06;2.60;99.90
15355;DHT22;7777;52.254;9.618;2023-01-19T07:11:35;2.60;99.90
15355;DHT22;7777;52.254;9.618;2023-01-19T07:14:01;2.60;99.90
15355;DHT22;7777;52.254;9.618;2023-01-19T07:16:27;2.60;99.90
15355;DHT22;7777;52.254;9.618;2023-01-19T07:18:53;2.60;99.90
15355;DHT22;7777;52.254;9.618;2023-01-19T07:21:20;2.70;99.90
15355;DHT22;7777;52.254;9.618;2023-01-19T07:23:50;2.70;99.90
15355;DHT22;7777;52.254;9.618;2023-01-19T07:26:16;2.70;99.90
15355;DHT22;7777;52.254;9.618;2023-01-19T07:28:48;2.70;99.90
15355;DHT22;7777;52.254;9.618;2023-01-19T07:31:14;2.70;99.90
15355;DHT22;7777;52.254;9.618;2023-01-19T07:33:40;2.70;99.90
15355;DHT22;7777;52.254;9.618;2023-01-19T07:36:06;2.70;99.90
15355;DHT22;7777;52.254;9.618;2023-01-19T07:38:32;2.70;99.90
15355;DHT22;7777;52.254;9.618;2023-01-19T07:41:02;2.70;99.90
15355;DHT22;7777;52.254;9.618;2023-01-19T07:43:29;2.70;99.90
15355;DHT22;7777;52.254;9.618;2023-01-19T07:45:56;2.70;99.90
15355;DHT22;7777;52.254;9.618;2023-01-19T07:48:22;2.70;99.90
15355;DHT22;7777;52.254;9.618;2023-01-19T07:50:48;2.70;99.90
15355;DHT22;7777;52.254;9.618;2023-01-19T07:53:14;2.70;99.90
15355;DHT22;7777;52.254;9.618;2023-01-19T07:55:39;2.70;99.90
15355;DHT22;7777;52.254;9.618;2023-01-19T07:58:05;2.70;99.90
15355;DHT22;7777;52.254;9.618;2023-01-19T08:00:33;2.70;99.90
15355;DHT22;7777;52.254;9.618;2023-01-19T08:03:00;2.70;99.90
15355;DHT22;7777;52.254;9.618;2023-01-19T08:05:26;2.70;99.90
15355;DHT22;7777;52.254;9.618;2023-01-19T08:07:56;2.80;99.90
15355;DHT22;7777;52.254;9.618;2023-01-19T08:10:23;2.80;99.90
15355;DHT22;7777;52.254;9.618;2023-01-19T08:12:53;2.80;99.90
15355;DHT22;7777;52.254;9.618;2023-01-19T08:15:19;2.80;99.90
15355;DHT22;7777;52.254;9.618;2023-01-19T08:17:56;2.80;99.90
15355;DHT22;7777;52.254;9.618;2023-01-19T08:20:33;2.80;99.90
15355;DHT22;7777;52.254;9.618;2023-01-19T08:22:59;2.80;99.90
15355;DHT22;7777;52.254;9.618;2023-01-19T08:25:32;2.80;99.90
15355;DHT22;7777;52.254;9.618;2023-01-19T08:27:59;2.70;99.90
15355;DHT22;7777;52.254;9.618;2023-01-19T08:30:25;2.80;99.90
15355;DHT22;7777;52.254;9.618;2023-01-19T08:32:54;2.80;99.90
15355;DHT22;7777;52.254;9.618;2023-01-19T08:35:31;2.80;99.90
15355;DHT22;7777;52.254;9.618;2023-01-19T08:37:58;2.70;99.90
15355;DHT22;7777;52.254;9.618;2023-01-19T08:40:44;2.70;99.90
15355;DHT22;7777;52.254;9.618;2023-01-19T08:43:14;2.70;99.90
15355;DHT22;7777;52.254;9.618;2023-01-19T08:45:48;2.70;99.90
15355;DHT22;7777;52.254;9.618;2023-01-19T08:48:17;2.70;99.90
15355;DHT22;7777;52.254;9.618;2023-01-19T08:50:47;2.60;99.90
15355;DHT22;7777;52.254;9.618;2023-01-19T08:53:13;2.60;99.90
15355;DHT22;7777;52.254;9.618;2023-01-19T08:55:40;2.50;99.90
15355;DHT22;7777;52.254;9.618;2023-01-19T08:58:06;2.50;99.90
15355;DHT22;7777;52.254;9.618;2023-01-19T09:00:34;2.50;99.90
15355;DHT22;7777;52.254;9.618;2023-01-19T09:03:03;2.50;99.90
15355;DHT22;7777;52.254;9.618;2023-01-19T09:05:32;2.50;99.90
15355;DHT22;7777;52.254;9.618;2023-01-19T09:08:02;2.40;99.90
15355;DHT22;7777;52.254;9.618;2023-01-19T09:10:28;2.40;99.90
15355;DHT22;7777;52.254;9.618;2023-01-19T09:12:59;2.40;99.90
15355;DHT22;7777;52.254;9.618;2023-01-19T09:15:25;2.40;99.90
15355;DHT22;7777;52.254;9.618;2023-01-19T09:17:51;2.30;99.90
15355;DHT22;7777;52.254;9.618;2023-01-19T09:20:17;2.30;99.90
15355;DHT22;7777;52.254;9.618;2023-01-19T09:22:43;2.30;99.90
15355;DHT22;7777;52.254;9.618;2023-01-19T09:25:09;2.30;99.90
15355;DHT22;7777;52.254;9.618;2023-01-19T09:27:34;2.20;99.90
15355;DHT22;7777;52.254;9.618;2023-01-19T09:30:00;2.20;99.90
15355;DHT22;7777;52.254;9.618;2023-01-19T09:32:26;2.20;99.90
15355;DHT22;7777;52.254;9.618;2023-01-19T09:34:52;2.20;99.90
15355;DHT22;7777;52.254;9.618;2023-01-19T09:37:19;2.20;99.90
15355;DHT22;7777;52.254;9.618;2023-01-19T09:39:45;2.20;99.90
15355;DHT22;7777;52.254;9.618;2023-01-19T09:45:04;2.20;99.90
15355;DHT22;7777;52.254;9.618;2023-01-19T09:47:32;2.20;99.90
15355;DHT22;7777;52.254;9.618;2023-01-19T09:50:03;2.20;99.90
15355;DHT22;7777;52.254;9.618;2023-01-19T09:52:54;2.20;99.90
15355;DHT22;7777;52.254;9.618;2023-01-19T09:55:25;2.20;99.90
15355;DHT22;7777;52.254;9.618;2023-01-19T09:57:52;2.20;99.90
15355;DHT22;7777;52.254;9.618;2023-01-19T10:00:19;2.20;99.90
15355;DHT22;7777;52.254;9.618;2023-01-19T10:03:02;2.20;99.90
15355;DHT22;7777;52.254;9.618;2023-01-19T10:05:51;2.20;99.90
15355;DHT22;7777;52.254;9.618;2023-01-19T10:11:01;2.20;99.90
15355;DHT22;7777;52.254;9.618;2023-01-19T10:13:47;2.20;99.90
15355;DHT22;7777;52.254;9.618;2023-01-19T10:16:28;2.20;99.90
15355;DHT22;7777;52.254;9.618;2023-01-19T10:19:11;2.20;99.90
15355;DHT22;7777;52.254;9.618;2023-01-19T10:21:44;2.20;99.90
15355;DHT22;7777;52.254;9.618;2023-01-19T10:24:17;2.20;99.90
15355;DHT22;7777;52.254;9.618;2023-01-19T10:26:48;2.20;99.90
15355;DHT22;7777;52.254;9.618;2023-01-19T10:29:36;2.20;99.90
15355;DHT22;7777;52.254;9.618;2023-01-19T10:32:21;2.20;99.90
15355;DHT22;7777;52.254;9.618;2023-01-19T10:34:50;2.30;99.90
15355;DHT22;7777;52.254;9.618;2023-01-19T10:39:44;2.30;99.90
15355;DHT22;7777;52.254;9.618;2023-01-19T10:42:15;2.30;99.90
15355;DHT22;7777;52.254;9.618;2023-01-19T10:44:44;2.30;99.90
15355;DHT22;7777;52.254;9.618;2023-01-19T10:47:16;2.30;99.90
15355;DHT22;7777;52.254;9.618;2023-01-19T10:49:43;2.40;99.90
15355;DHT22;7777;52.254;9.618;2023-01-19T10:52:23;2.40;99.90
15355;DHT22;7777;52.254;9.618;2023-01-19T10:54:56;2.50;99.90
15355;DHT22;7777;52.254;9.618;2023-01-19T10:57:35;2.50;99.90
15355;DHT22;7777;52.254;9.618;2023-01-19T11:00:04;2.50;99.90
15355;DHT22;7777;52.254;9.618;2023-01-19T11:02:32;2.50;99.90
15355;DHT22;7777;52.254;9.618;2023-01-19T11:05:00;2.50;99.90
15355;DHT22;7777;52.254;9.618;2023-01-19T11:07:31;2.60;99.90
15355;DHT22;7777;52.254;9.618;2023-01-19T11:15:22;2.70;99.90
15355;DHT22;7777;52.254;9.618;2023-01-19T11:17:50;2.70;99.90
15355;DHT22;7777;52.254;9.618;2023-01-19T11:20:21;2.80;99.90
15355;DHT22;7777;52.254;9.618;2023-01-19T11:23:04;2.80;99.90
15355;DHT22;7777;52.254;9.618;2023-01-19T11:25:34;2.90;99.90
15355;DHT22;7777;52.254;9.618;2023-01-19T11:28:00;2.90;99.90
15355;DHT22;7777;52.254;9.618;2023-01-19T11:30:33;2.90;99.90
15355;DHT22;7777;52.254;9.618;2023-01-19T11:32:59;2.90;99.90
15355;DHT22;7777;52.254;9.618;2023-01-19T11:35:39;2.90;99.90
15355;DHT22;7777;52.254;9.618;2023-01-19T11:38:10;2.90;99.90
15355;DHT22;7777;52.254;9.618;2023-01-19T11:40:54;2.90;99.90
15355;DHT22;7777;52.254;9.618;2023-01-19T11:43:30;2.90;99.90
15355;DHT22;7777;52.254;9.618;2023-01-19T11:45:57;2.90;99.90
15355;DHT22;7777;52.254;9.618;2023-01-19T11:48:34;2.90;99.90
15355;DHT22;7777;52.254;9.618;2023-01-19T11:51:03;2.90;99.90
15355;DHT22;7777;52.254;9.618;2023-01-19T11:53:33;2.90;99.90
15355;DHT22;7777;52.254;9.618;2023-01-19T11:56:07;2.90;99.90
15355;DHT22;7777;52.254;9.618;2023-01-19T11:58:42;2.90;99.90
15355;DHT22;7777;52.254;9.618;2023-01-19T12:01:22;2.90;99.90
15355;DHT22;7777;52.254;9.618;2023-01-19T12:04:10;2.90;99.90
15355;DHT22;7777;52.254;9.618;2023-01-19T12:06:48;2.90;99.90
15355;DHT22;7777;52.254;9.618;2023-01-19T12:10:01;2.90;99.90
15355;DHT22;7777;52.254;9.618;2023-01-19T12:15:07;2.80;99.90
15355;DHT22;7777;52.254;9.618;2023-01-19T12:17:53;2.80;99.90
15355;DHT22;7777;52.254;9.618;2023-01-19T12:20:40;2.80;99.90
15355;DHT22;7777;52.254;9.618;2023-01-19T12:28:48;2.80;99.90
15355;DHT22;7777;52.254;9.618;2023-01-19T12:31:17;2.80;99.90
15355;DHT22;7777;52.254;9.618;2023-01-19T12:33:44;2.80;99.90
15355;DHT22;7777;52.254;9.618;2023-01-19T12:39:16;2.80;99.90
15355;DHT22;7777;52.254;9.618;2023-01-19T12:41:44;2.80;99.90
15355;DHT22;7777;52.254;9.618;2023-01-19T13:13:31;2.90;99.90
15355;DHT22;7777;52.254;9.618;2023-01-19T13:21:38;3.00;99.90
15355;DHT22;7777;52.254;9.618;2023-01-19T13:24:10;3.00;99.90
15355;DHT22;7777;52.254;9.618;2023-01-19T13:29:36;3.10;99.90
15355;DHT22;7777;52.254;9.618;2023-01-19T13:32:16;3.20;99.90
15355;DHT22;7777;52.254;9.618;2023-01-19T13:34:51;3.20;99.90
15355;DHT22;7777;52.254;9.618;2023-01-19T13:37:26;3.20;99.90
15355;DHT22;7777;52.254;9.618;2023-01-19T13:39:55;3.30;99.90
15355;DHT22;7777;52.254;9.618;2023-01-19T13:44:57;3.30;99.90
15355;DHT22;7777;52.254;9.618;2023-01-19T13:50:04;3.40;99.90
15355;DHT22;7777;52.254;9.618;2023-01-19T13:52:30;3.40;99.90
15355;DHT22;7777;52.254;9.618;2023-01-19T13:55:01;3.50;99.90
15355;DHT22;7777;52.254;9.618;2023-01-19T13:57:33;3.50;99.90
15355;DHT22;7777;52.254;9.618;2023-01-19T14:03:01;3.50;99.90
15355;DHT22;7777;52.254;9.618;2023-01-19T14:05:38;3.60;99.90
15355;DHT22;7777;52.254;9.618;2023-01-19T14:13:32;3.60;99.90
15355;DHT22;7777;52.254;9.618;2023-01-19T14:16:13;3.60;99.90
15355;DHT22;7777;52.254;9.618;2023-01-19T14:18:40;3.60;99.90
15355;DHT22;7777;52.254;9.618;2023-01-19T14:21:08;3.60;99.90
15355;DHT22;7777;52.254;9.618;2023-01-19T14:23:52;3.60;99.90
15355;DHT22;7777;52.254;9.618;2023-01-19T14:29:25;3.60;99.90
15355;DHT22;7777;52.254;9.618;2023-01-19T14:34:49;3.60;99.90
15355;DHT22;7777;52.254;9.618;2023-01-19T14:37:29;3.60;99.90
15355;DHT22;7777;52.254;9.618;2023-01-19T14:40:12;3.60;99.90
15355;DHT22;7777;52.254;9.618;2023-01-19T14:45:16;3.60;99.90
15355;DHT22;7777;52.254;9.618;2023-01-19T14:47:44;3.60;99.90
15355;DHT22;7777;52.254;9.618;2023-01-19T14:50:26;3.60;99.90
15355;DHT22;7777;52.254;9.618;2023-01-19T14:55:32;3.60;99.90
15355;DHT22;7777;52.254;9.618;2023-01-19T14:58:01;3.50;99.90
15355;DHT22;7777;52.254;9.618;2023-01-19T15:00:27;3.50;99.90
15355;DHT22;7777;52.254;9.618;2023-01-19T15:02:52;3.50;99.90
15355;DHT22;7777;52.254;9.618;2023-01-19T15:05:18;3.50;99.90
15355;DHT22;7777;52.254;9.618;2023-01-19T15:07:45;3.50;99.90
15355;DHT22;7777;52.254;9.618;2023-01-19T15:10:21;3.50;99.90
15355;DHT22;7777;52.254;9.618;2023-01-19T15:12:48;3.50;99.90
15355;DHT22;7777;52.254;9.618;2023-01-19T15:15:24;3.40;99.90
15355;DHT22;7777;52.254;9.618;2023-01-19T15:17:52;3.40;99.90
15355;DHT22;7777;52.254;9.618;2023-01-19T15:20:20;3.40;99.90
15355;DHT22;7777;52.254;9.618;2023-01-19T15:22:46;3.40;99.90
15355;DHT22;7777;52.254;9.618;2023-01-19T15:25:18;3.40;99.90
15355;DHT22;7777;52.254;9.618;2023-01-19T15:27:46;3.40;99.90
15355;DHT22;7777;52.254;9.618;2023-01-19T15:30:17;3.40;99.90
15355;DHT22;7777;52.254;9.618;2023-01-19T15:32:45;3.40;99.90
15355;DHT22;7777;52.254;9.618;2023-01-19T15:35:13;3.30;99.90
15355;DHT22;7777;52.254;9.618;2023-01-19T15:37:44;3.30;99.90
15355;DHT22;7777;52.254;9.618;2023-01-19T15:40:10;3.30;99.90
15355;DHT22;7777;52.254;9.618;2023-01-19T15:42:37;3.30;99.90
15355;DHT22;7777;52.254;9.618;2023-01-19T15:45:35;3.30;99.90
15355;DHT22;7777;52.254;9.618;2023-01-19T15:48:10;3.30;99.90
15355;DHT22;7777;52.254;9.618;2023-01-19T15:50:41;3.40;99.90
15355;DHT22;7777;52.254;9.618;2023-01-19T15:56:23;3.30;99.90
15355;DHT22;7777;52.254;9.618;2023-01-19T15:58:53;3.30;99.90
15355;DHT22;7777;52.254;9.618;2023-01-19T16:01:22;3.20;99.90
15355;DHT22;7777;52.254;9.618;2023-01-19T16:03:54;3.20;99.90
15355;DHT22;7777;52.254;9.618;2023-01-19T16:06:20;3.20;99.90
15355;DHT22;7777;52.254;9.618;2023-01-19T16:08:46;3.20;99.90
15355;DHT22;7777;52.254;9.618;2023-01-19T16:11:14;3.20;99.90
15355;DHT22;7777;52.254;9.618;2023-01-19T16:13:46;3.20;99.90
15355;DHT22;7777;52.254;9.618;2023-01-19T16:16:18;3.10;99.90
15355;DHT22;7777;52.254;9.618;2023-01-19T16:18:46;3.10;99.90
15355;DHT22;7777;52.254;9.618;2023-01-19T16:21:15;3.10;99.90
15355;DHT22;7777;52.254;9.618;2023-01-19T16:23:41;3.10;99.90
15355;DHT22;7777;52.254;9.618;2023-01-19T16:26:22;3.10;99.90
15355;DHT22;7777;52.254;9.618;2023-01-19T16:28:50;3.10;99.90
15355;DHT22;7777;52.254;9.618;2023-01-19T16:31:16;3.00;99.90
15355;DHT22;7777;52.254;9.618;2023-01-19T16:33:43;3.00;99.90
15355;DHT22;7777;52.254;9.618;2023-01-19T16:36:21;3.00;99.90
15355;DHT22;7777;52.254;9.618;2023-01-19T16:38:47;3.00;99.90
15355;DHT22;7777;52.254;9.618;2023-01-19T16:41:12;3.00;99.90
15355;DHT22;7777;52.254;9.618;2023-01-19T16:43:38;3.00;99.90
15355;DHT22;7777;52.254;9.618;2023-01-19T16:46:04;3.00;99.90
15355;DHT22;7777;52.254;9.618;2023-01-19T16:48:33;3.00;99.90
15355;DHT22;7777;52.254;9.618;2023-01-19T16:51:04;3.00;99.90
15355;DHT22;7777;52.254;9.618;2023-01-19T16:53:32;3.00;99.90
15355;DHT22;7777;52.254;9.618;2023-01-19T16:56:11;2.90;99.90
15355;DHT22;7777;52.254;9.618;2023-01-19T16:58:39;2.90;99.90
15355;DHT22;7777;52.254;9.618;2023-01-19T17:01:15;2.90;99.90
15355;DHT22;7777;52.254;9.618;2023-01-19T17:03:42;2.90;99.90
15355;DHT22;7777;52.254;9.618;2023-01-19T17:06:11;2.90;99.90
15355;DHT22;7777;52.254;9.618;2023-01-19T17:08:43;2.90;99.90
15355;DHT22;7777;52.254;9.618;2023-01-19T17:11:34;2.90;99.90
15355;DHT22;7777;52.254;9.618;2023-01-19T17:14:03;2.90;99.90
15355;DHT22;7777;52.254;9.618;2023-01-19T17:16:31;2.80;99.90
15355;DHT22;7777;52.254;9.618;2023-01-19T17:18:59;2.80;99.90
15355;DHT22;7777;52.254;9.618;2023-01-19T17:21:27;2.80;99.90
15355;DHT22;7777;52.254;9.618;2023-01-19T17:23:54;2.80;99.90
15355;DHT22;7777;52.254;9.618;2023-01-19T17:26:20;2.80;99.90
15355;DHT22;7777;52.254;9.618;2023-01-19T17:28:50;2.80;99.90
15355;DHT22;7777;52.254;9.618;2023-01-19T17:31:19;2.70;99.90
15355;DHT22;7777;52.254;9.618;2023-01-19T17:33:47;2.70;99.90
15355;DHT22;7777;52.254;9.618;2023-01-19T17:36:17;2.70;99.90
15355;DHT22;7777;52.254;9.618;2023-01-19T17:38:49;2.70;99.90
15355;DHT22;7777;52.254;9.618;2023-01-19T17:41:18;2.70;99.90
15355;DHT22;7777;52.254;9.618;2023-01-19T17:43:46;2.70;99.90
15355;DHT22;7777;52.254;9.618;2023-01-19T17:46:14;2.60;99.90
15355;DHT22;7777;52.254;9.618;2023-01-19T17:48:40;2.70;99.90
15355;DHT22;7777;52.254;9.618;2023-01-19T17:51:08;2.70;99.90
15355;DHT22;7777;52.254;9.618;2023-01-19T17:53:38;2.60;99.90
15355;DHT22;7777;52.254;9.618;2023-01-19T17:56:12;2.60;99.90
15355;DHT22;7777;52.254;9.618;2023-01-19T17:58:39;2.60;99.90
15355;DHT22;7777;52.254;9.618;2023-01-19T18:01:17;2.60;99.90
15355;DHT22;7777;52.254;9.618;2023-01-19T18:03:44;2.60;99.90
15355;DHT22;7777;52.254;9.618;2023-01-19T18:06:10;2.50;99.90
15355;DHT22;7777;52.254;9.618;2023-01-19T18:08:40;2.50;99.90
15355;DHT22;7777;52.254;9.618;2023-01-19T18:11:08;2.50;99.90
15355;DHT22;7777;52.254;9.618;2023-01-19T18:13:35;2.50;99.90